Time;durP1;ratioP1;P1;durP2;ratioP2;P2;SDS_P1;SDS_P2;PMS_P1;PMS_P2;Temp;Humidity;BMP_temperature;BMP_pressure;BME280_temperature;BME280_humidity;BME280_pressure;Samples;Min_cycle;Max_cycle;Signal;HPM_P1;HPM_P2
2022/06/17 00:00:45;;;;;;;5.97;4.25;;;14.90;99.90;;;;;;5094929;28;20165;-66
2022/06/17 00:03:11;;;;;;;7.85;4.25;;;14.80;99.90;;;;;;5093572;28;20224;-66
2022/06/17 00:05:37;;;;;;;5.88;4.20;;;14.80;99.90;;;;;;5095048;28;20181;-66
2022/06/17 00:08:03;;;;;;;8.45;4.88;;;14.70;99.90;;;;;;5094906;28;20720;-66
2022/06/17 00:10:28;;;;;;;6.80;4.65;;;14.60;99.90;;;;;;5094134;28;20201;-66
2022/06/17 00:12:54;;;;;;;7.13;4.45;;;14.50;99.90;;;;;;5094546;28;20205;-66
2022/06/17 00:15:20;;;;;;;5.70;4.07;;;14.40;99.90;;;;;;5094209;28;20192;-66
2022/06/17 00:17:54;;;;;;;7.93;4.38;;;14.40;99.90;;;;;;5094408;28;20165;-66
2022/06/17 00:20:23;;;;;;;5.72;4.47;;;14.30;99.90;;;;;;5094970;28;20162;-66
2022/06/17 00:22:50;;;;;;;5.25;4.10;;;14.20;99.90;;;;;;5094476;28;20175;-66
2022/06/17 00:25:36;;;;;;;5.95;4.53;;;14.20;99.90;;;;;;5094213;28;20249;-66
2022/06/17 00:28:03;;;;;;;5.18;4.38;;;14.10;99.90;;;;;;5094118;28;20594;-66
2022/06/17 00:30:32;;;;;;;6.38;4.43;;;14.10;99.90;;;;;;5094079;28;20204;-66
2022/06/17 00:33:00;;;;;;;6.13;4.57;;;14.10;99.90;;;;;;5094751;28;20664;-66
2022/06/17 00:35:54;;;;;;;5.55;4.70;;;14.10;99.90;;;;;;5094745;28;20523;-66
2022/06/17 00:38:39;;;;;;;7.32;4.53;;;14.10;99.90;;;;;;5093627;28;20185;-66
2022/06/17 00:41:16;;;;;;;7.50;4.80;;;14.00;99.90;;;;;;5094355;28;20726;-66
2022/06/17 00:43:44;;;;;;;7.03;4.35;;;14.10;99.90;;;;;;5094709;28;20192;-66
2022/06/17 00:46:19;;;;;;;6.75;4.82;;;14.10;99.90;;;;;;5092879;28;20212;-66
2022/06/17 00:49:14;;;;;;;5.45;4.45;;;14.00;99.90;;;;;;5094664;28;20725;-66
2022/06/17 00:51:48;;;;;;;7.22;4.78;;;14.00;99.90;;;;;;5091377;28;20189;-66
2022/06/17 00:54:18;;;;;;;6.07;4.70;;;13.90;99.90;;;;;;5093896;28;20218;-66
2022/06/17 00:56:43;;;;;;;5.05;4.10;;;13.90;99.90;;;;;;5092488;28;20272;-66
2022/06/17 00:59:15;;;;;;;5.45;4.18;;;13.90;99.90;;;;;;5094593;28;20201;-66
2022/06/17 01:01:44;;;;;;;5.95;4.10;;;13.80;99.90;;;;;;5093960;28;20184;-66
2022/06/17 01:04:11;;;;;;;5.45;4.32;;;13.80;99.90;;;;;;5093669;28;20197;-66
2022/06/17 01:06:43;;;;;;;8.60;4.47;;;13.80;99.90;;;;;;5092566;28;20224;-66
2022/06/17 01:12:02;;;;;;;6.93;4.75;;;13.80;99.90;;;;;;5094219;28;20195;-66
2022/06/17 01:14:29;;;;;;;6.88;4.30;;;13.60;99.90;;;;;;5093338;28;20209;-66
2022/06/17 01:16:57;;;;;;;6.47;4.13;;;13.60;99.90;;;;;;5093704;28;20222;-66
2022/06/17 01:19:42;;;;;;;5.40;4.22;;;13.50;99.90;;;;;;5093837;28;20231;-66
2022/06/17 01:22:26;;;;;;;6.30;4.65;;;13.50;99.90;;;;;;5089540;28;20207;-66
2022/06/17 01:25:10;;;;;;;5.35;4.57;;;13.30;99.90;;;;;;5093564;28;20199;-66
2022/06/17 01:27:44;;;;;;;9.07;4.78;;;13.20;99.90;;;;;;5092161;28;20215;-66
2022/06/17 01:30:15;;;;;;;6.45;4.50;;;13.20;99.90;;;;;;5093810;28;20215;-65
2022/06/17 01:32:51;;;;;;;5.80;4.53;;;13.20;99.90;;;;;;5094029;28;20516;-66
2022/06/17 01:35:19;;;;;;;6.38;4.60;;;13.10;99.90;;;;;;5093620;28;20561;-66
2022/06/17 01:37:45;;;;;;;7.63;5.05;;;13.10;99.90;;;;;;5093444;28;20214;-66
2022/06/17 01:40:12;;;;;;;7.97;4.85;;;13.10;99.90;;;;;;5091922;28;20526;-66
2022/06/17 01:42:39;;;;;;;5.35;4.43;;;13.00;99.90;;;;;;5093646;28;20188;-66
2022/06/17 01:45:07;;;;;;;9.55;4.85;;;13.10;99.90;;;;;;5093278;28;20173;-66
2022/06/17 01:47:34;;;;;;;5.63;5.03;;;13.00;99.90;;;;;;5093397;28;20252;-66
2022/06/17 01:50:11;;;;;;;6.53;4.43;;;13.00;99.90;;;;;;5092039;28;20213;-65
2022/06/17 01:53:03;;;;;;;5.10;4.20;;;12.90;99.90;;;;;;5093311;28;20172;-65
2022/06/17 01:55:45;;;;;;;8.17;4.70;;;13.00;99.90;;;;;;5086556;28;20641;-66
2022/06/17 01:58:16;;;;;;;5.40;4.53;;;13.00;99.90;;;;;;5093472;28;20186;-65
2022/06/17 02:00:42;;;;;;;7.75;4.97;;;13.00;99.90;;;;;;5095903;28;20544;-66
2022/06/17 02:03:18;;;;;;;7.00;4.80;;;13.00;99.90;;;;;;5096955;28;20216;-66
2022/06/17 02:05:50;;;;;;;5.28;4.45;;;12.90;99.90;;;;;;5097184;28;20168;-66
2022/06/17 02:08:16;;;;;;;6.63;5.00;;;12.90;99.90;;;;;;5097330;28;20606;-66
2022/06/17 02:10:46;;;;;;;8.00;5.43;;;12.90;99.90;;;;;;5096642;28;20243;-66
2022/06/17 02:13:13;;;;;;;5.87;4.70;;;12.90;99.90;;;;;;5097065;28;20224;-66
2022/06/17 02:15:39;;;;;;;7.85;4.70;;;12.90;99.90;;;;;;5096694;28;20185;-66
2022/06/17 02:18:10;;;;;;;7.37;4.57;;;12.90;99.90;;;;;;5096780;28;20169;-66
2022/06/17 02:20:38;;;;;;;6.87;4.70;;;13.00;99.90;;;;;;5097077;28;20618;-66
2022/06/17 02:23:05;;;;;;;5.63;4.20;;;13.00;99.90;;;;;;5096981;28;20196;-66
2022/06/17 02:25:36;;;;;;;9.07;4.65;;;13.00;99.90;;;;;;5096620;28;20181;-66
2022/06/17 02:28:03;;;;;;;5.00;4.50;;;12.90;99.90;;;;;;5096607;28;20189;-66
2022/06/17 02:30:30;;;;;;;7.43;5.00;;;12.80;99.90;;;;;;5096742;28;20204;-66
2022/06/17 02:32:59;;;;;;;4.67;4.13;;;12.70;99.90;;;;;;5097156;28;20318;-66
2022/06/17 02:35:49;;;;;;;5.93;4.60;;;12.60;99.90;;;;;;5096962;28;20237;-66
2022/06/17 02:38:19;;;;;;;6.78;4.50;;;12.60;99.90;;;;;;5095323;28;20165;-66
2022/06/17 02:40:48;;;;;;;7.05;4.68;;;12.70;99.90;;;;;;5096244;28;20181;-66
2022/06/17 02:43:18;;;;;;;9.90;5.20;;;12.70;99.90;;;;;;5096806;28;20665;-66
2022/06/17 02:45:49;;;;;;;8.90;4.70;;;12.70;99.90;;;;;;5095260;28;20173;-66
2022/06/17 02:48:31;;;;;;;5.37;4.80;;;12.70;99.90;;;;;;5097232;28;20200;-66
2022/06/17 02:50:59;;;;;;;9.25;4.95;;;12.70;99.90;;;;;;5096332;28;20169;-65
2022/06/17 02:53:36;;;;;;;7.53;5.03;;;12.70;99.90;;;;;;5096092;28;20611;-65
2022/06/17 02:56:36;;;;;;;7.70;4.97;;;12.60;99.90;;;;;;5095689;28;20185;-65
2022/06/17 02:59:15;;;;;;;6.23;4.67;;;12.60;99.90;;;;;;5084347;28;20221;-65
2022/06/17 03:01:42;;;;;;;7.97;5.10;;;12.60;99.90;;;;;;5095980;28;20165;-66
2022/06/17 03:04:23;;;;;;;7.40;5.65;;;12.50;99.90;;;;;;5095948;28;20279;-66
2022/06/17 03:06:50;;;;;;;7.93;5.50;;;12.60;99.90;;;;;;5096549;28;20166;-66
2022/06/17 03:09:21;;;;;;;6.72;5.22;;;12.60;99.90;;;;;;5096080;28;20200;-66
2022/06/17 03:12:06;;;;;;;10.90;6.13;;;12.50;99.90;;;;;;5094541;28;20702;-65
2022/06/17 03:14:41;;;;;;;9.40;5.47;;;12.50;99.90;;;;;;5095887;28;20209;-66
2022/06/17 03:17:11;;;;;;;5.77;5.23;;;12.50;99.90;;;;;;5096033;28;20168;-65
2022/06/17 03:19:38;;;;;;;8.20;5.40;;;12.50;99.90;;;;;;5094333;28;20180;-66
2022/06/17 03:22:06;;;;;;;8.50;5.90;;;12.50;99.90;;;;;;5096078;28;20180;-66
2022/06/17 03:24:53;;;;;;;8.50;6.43;;;12.50;99.90;;;;;;5093997;28;20200;-66
2022/06/17 03:28:00;;;;;;;6.90;5.70;;;12.50;99.90;;;;;;5096003;28;20192;-64
2022/06/17 03:30:52;;;;;;;7.10;5.60;;;12.50;99.90;;;;;;5095686;28;20220;-66
2022/06/17 03:33:20;;;;;;;7.57;5.87;;;12.50;99.90;;;;;;5095657;28;20204;-66
2022/06/17 03:35:49;;;;;;;6.67;5.73;;;12.40;99.90;;;;;;5093965;28;20173;-65
2022/06/17 03:38:27;;;;;;;7.73;6.07;;;12.40;99.90;;;;;;5093798;28;20326;-65
2022/06/17 03:40:59;;;;;;;6.43;5.10;;;12.30;99.90;;;;;;5094906;28;20200;-66
2022/06/17 03:43:40;;;;;;;7.70;4.90;;;12.30;99.90;;;;;;5095208;28;20200;-65
2022/06/17 03:46:07;;;;;;;5.70;4.87;;;12.30;99.90;;;;;;5094018;28;20208;-66
2022/06/17 03:48:39;;;;;;;7.33;5.27;;;12.30;99.90;;;;;;5095064;28;20604;-65
2022/06/17 03:51:05;;;;;;;7.20;5.70;;;12.30;99.90;;;;;;5095721;28;20286;-65
2022/06/17 03:53:34;;;;;;;8.10;4.80;;;12.30;99.90;;;;;;5095335;28;20201;-65
2022/06/17 03:56:35;;;;;;;7.53;5.50;;;12.30;99.90;;;;;;5094565;28;20204;-66
2022/06/17 03:59:06;;;;;;;6.13;4.80;;;12.30;99.90;;;;;;5095621;28;20637;-66
2022/06/17 04:01:38;;;;;;;8.60;5.40;;;12.40;99.90;;;;;;5094899;28;20285;-66
2022/06/17 04:04:17;;;;;;;8.23;5.13;;;12.50;99.90;;;;;;5093559;28;20240;-66
2022/06/17 04:06:45;;;;;;;7.78;4.88;;;12.40;99.90;;;;;;5093561;28;20161;-65
2022/06/17 04:09:29;;;;;;;10.70;5.47;;;12.40;99.90;;;;;;5093304;28;20554;-65
2022/06/17 04:12:05;;;;;;;8.20;5.00;;;12.40;99.90;;;;;;5094811;28;20176;-65
2022/06/17 04:14:56;;;;;;;9.47;5.70;;;12.50;99.90;;;;;;5094499;28;20205;-64
2022/06/17 04:17:48;;;;;;;7.07;5.37;;;12.50;99.90;;;;;;5095036;28;20161;-65
2022/06/17 04:20:35;;;;;;;6.10;5.50;;;12.60;99.90;;;;;;5094896;28;20153;-65
2022/06/17 04:23:10;;;;;;;9.67;5.53;;;12.70;99.90;;;;;;5094140;28;20196;-65
2022/06/17 04:25:42;;;;;;;9.67;5.30;;;12.90;99.90;;;;;;5094753;28;20614;-65
2022/06/17 04:28:12;;;;;;;12.40;5.88;;;13.00;99.90;;;;;;5073357;28;20280;-65
2022/06/17 04:30:45;;;;;;;9.38;6.18;;;13.10;99.90;;;;;;5073951;28;20292;-65
2022/06/17 04:33:51;;;;;;;6.83;5.53;;;13.30;99.90;;;;;;5074830;28;20232;-65
2022/06/17 04:36:31;;;;;;;9.10;6.05;;;13.30;99.90;;;;;;5074099;28;20650;-65
2022/06/17 04:39:00;;;;;;;7.72;5.85;;;13.30;99.90;;;;;;5074603;28;20165;-65
2022/06/17 04:41:31;;;;;;;12.68;6.57;;;13.30;99.90;;;;;;5072743;28;20186;-65
2022/06/17 04:43:58;;;;;;;8.05;6.22;;;13.30;99.90;;;;;;5072653;28;20205;-66
2022/06/17 04:46:43;;;;;;;8.20;5.78;;;13.40;99.90;;;;;;5073785;28;20216;-66
2022/06/17 04:49:20;;;;;;;10.68;5.63;;;13.50;99.90;;;;;;5073822;28;20231;-66
2022/06/17 04:51:48;;;;;;;5.90;5.15;;;13.50;99.90;;;;;;5074010;28;20170;-65
2022/06/17 04:54:15;;;;;;;10.48;5.75;;;13.50;99.90;;;;;;5073727;28;20193;-66
2022/06/17 04:56:47;;;;;;;7.50;5.53;;;13.60;99.90;;;;;;5072080;28;20250;-66
2022/06/17 04:59:24;;;;;;;13.05;5.90;;;13.60;99.90;;;;;;5072438;28;20646;-66
2022/06/17 05:01:51;;;;;;;7.55;5.70;;;13.60;99.90;;;;;;5074348;28;20196;-66
2022/06/17 05:04:17;;;;;;;9.55;5.70;;;13.60;99.90;;;;;;5073441;28;20560;-66
2022/06/17 05:06:43;;;;;;;8.93;5.82;;;13.60;99.90;;;;;;5073618;28;20223;-66
2022/06/17 05:09:24;;;;;;;7.75;5.82;;;13.60;99.90;;;;;;5073414;28;20197;-66
2022/06/17 05:11:59;;;;;;;9.07;6.25;;;13.60;99.90;;;;;;5073543;28;20254;-67
2022/06/17 05:14:36;;;;;;;7.85;6.20;;;13.60;99.90;;;;;;5073359;28;20201;-66
2022/06/17 05:17:02;;;;;;;8.35;6.30;;;13.60;99.90;;;;;;5073603;28;20610;-66
2022/06/17 05:19:28;;;;;;;10.45;5.88;;;13.70;99.90;;;;;;5073655;28;20184;-66
2022/06/17 05:21:54;;;;;;;7.00;5.53;;;13.80;99.90;;;;;;5072543;28;20188;-66
2022/06/17 05:24:20;;;;;;;7.28;5.70;;;13.90;99.90;;;;;;5073607;28;20585;-66
2022/06/17 05:26:46;;;;;;;7.88;5.95;;;14.00;99.90;;;;;;5072069;28;20188;-66
2022/06/17 05:29:12;;;;;;;7.32;6.03;;;14.10;99.90;;;;;;5073484;28;20205;-66
2022/06/17 05:31:39;;;;;;;10.57;5.97;;;14.20;99.90;;;;;;5073749;28;20173;-66
2022/06/17 05:34:05;;;;;;;7.32;5.75;;;14.30;99.90;;;;;;5074598;28;20212;-66
2022/06/17 05:36:31;;;;;;;7.60;5.90;;;14.40;99.90;;;;;;5076200;28;20606;-66
2022/06/17 05:38:57;;;;;;;8.27;6.22;;;14.60;99.90;;;;;;5077149;28;20177;-66
2022/06/17 05:41:24;;;;;;;10.55;6.43;;;14.70;99.90;;;;;;5076822;28;20706;-66
2022/06/17 05:43:51;;;;;;;7.47;6.10;;;14.80;99.90;;;;;;5076917;28;20197;-65
2022/06/17 05:46:18;;;;;;;8.23;6.03;;;14.60;99.90;;;;;;5077119;28;20193;-66
2022/06/17 05:48:44;;;;;;;7.47;5.50;;;14.70;99.90;;;;;;5077390;28;20212;-66
2022/06/17 05:51:13;;;;;;;7.20;5.57;;;14.80;99.90;;;;;;5075587;28;20673;-65
2022/06/17 05:53:39;;;;;;;10.70;6.05;;;14.80;99.90;;;;;;5075744;28;20205;-66
2022/06/17 05:56:05;;;;;;;8.02;5.45;;;14.80;99.90;;;;;;5075163;28;20178;-66
2022/06/17 05:58:31;;;;;;;6.63;5.60;;;14.90;99.90;;;;;;5076657;28;20580;-65
2022/06/17 06:00:56;;;;;;;6.43;4.90;;;15.00;99.90;;;;;;5076841;28;20178;-66
2022/06/17 06:03:27;;;;;;;6.82;5.35;;;15.10;99.90;;;;;;5077070;28;20186;-66
2022/06/17 06:05:52;;;;;;;6.13;5.22;;;15.30;99.90;;;;;;5075247;28;20261;-66
2022/06/17 06:08:18;;;;;;;8.27;5.57;;;15.60;99.90;;;;;;5076570;28;20217;-66
2022/06/17 06:10:45;;;;;;;8.48;5.60;;;15.80;99.90;;;;;;5076216;28;20193;-66
2022/06/17 06:13:16;;;;;;;6.22;5.40;;;16.00;99.90;;;;;;5076311;28;20611;-66
2022/06/17 06:15:46;;;;;;;6.32;4.82;;;16.20;99.90;;;;;;5075272;28;20731;-66
2022/06/17 06:18:16;;;;;;;6.22;4.70;;;16.30;99.90;;;;;;5076638;28;20229;-66
2022/06/17 06:20:42;;;;;;;8.50;5.80;;;16.40;99.90;;;;;;5076228;28;20174;-66
2022/06/17 06:23:08;;;;;;;6.07;4.90;;;16.50;99.90;;;;;;5076157;28;20557;-66
2022/06/17 06:25:35;;;;;;;5.25;4.45;;;16.60;99.90;;;;;;5075868;28;20580;-66
2022/06/17 06:28:13;;;;;;;6.10;4.97;;;16.60;99.90;;;;;;5074970;28;20190;-66
2022/06/17 06:30:39;;;;;;;5.63;4.93;;;16.50;99.90;;;;;;5076732;28;20614;-66
2022/06/17 06:33:05;;;;;;;7.93;5.20;;;16.50;99.90;;;;;;5076025;28;20189;-66
2022/06/17 06:35:36;;;;;;;10.75;5.28;;;16.50;99.90;;;;;;5075860;28;20283;-66
2022/06/17 06:38:04;;;;;;;7.45;4.93;;;16.50;99.90;;;;;;5076369;28;20219;-66
2022/06/17 06:40:31;;;;;;;9.05;5.65;;;16.70;99.90;;;;;;5075719;28;20186;-66
2022/06/17 06:42:57;;;;;;;6.90;4.70;;;16.80;99.90;;;;;;5076097;28;20199;-66
2022/06/17 06:45:33;;;;;;;5.75;4.85;;;17.00;99.90;;;;;;5075547;28;20182;-64
2022/06/17 06:48:03;;;;;;;6.15;4.18;;;17.20;99.90;;;;;;5076158;28;20169;-64
2022/06/17 06:50:31;;;;;;;10.63;5.53;;;17.40;99.90;;;;;;5076421;28;20193;-64
2022/06/17 06:52:57;;;;;;;7.22;4.88;;;17.40;99.90;;;;;;5077412;28;20643;-64
2022/06/17 06:55:23;;;;;;;5.47;4.32;;;17.50;99.90;;;;;;5076339;28;20181;-65
2022/06/17 06:57:52;;;;;;;6.55;4.97;;;17.70;99.90;;;;;;5074499;28;20186;-65
2022/06/17 07:00:43;;;;;;;5.28;4.47;;;17.80;99.90;;;;;;5077714;28;20623;-65
2022/06/17 07:03:09;;;;;;;5.65;4.70;;;17.90;99.90;;;;;;5076108;28;20276;-65
2022/06/17 07:05:37;;;;;;;4.90;4.22;;;18.00;99.90;;;;;;5075122;28;20704;-67
2022/06/17 07:08:05;;;;;;;7.13;4.03;;;18.20;99.90;;;;;;5076459;28;20184;-66
2022/06/17 07:10:33;;;;;;;6.82;5.22;;;18.40;99.90;;;;;;5075169;28;20700;-66
2022/06/17 07:13:00;;;;;;;6.13;4.18;;;18.50;99.90;;;;;;5075568;28;20555;-66
2022/06/17 07:15:25;;;;;;;4.10;3.60;;;18.60;99.90;;;;;;5075180;28;20186;-66
2022/06/17 07:18:00;;;;;;;8.80;3.95;;;18.80;99.90;;;;;;5075402;28;20182;-66
2022/06/17 07:20:37;;;;;;;5.03;3.65;;;19.00;99.90;;;;;;5075525;28;20743;-66
2022/06/17 07:23:07;;;;;;;7.20;3.90;;;19.10;99.90;;;;;;5075635;28;20219;-66
2022/06/17 07:25:33;;;;;;;6.10;4.18;;;19.10;99.90;;;;;;5075148;28;20162;-66
2022/06/17 07:28:00;;;;;;;5.38;3.50;;;19.10;99.90;;;;;;5073790;28;20275;-66
2022/06/17 07:30:27;;;;;;;4.18;3.33;;;19.10;99.90;;;;;;5073759;28;20213;-66
2022/06/17 07:32:53;;;;;;;6.50;3.72;;;19.00;99.90;;;;;;5074806;28;20165;-66
2022/06/17 07:35:19;;;;;;;4.88;3.85;;;18.90;99.90;;;;;;5074887;28;20530;-66
2022/06/17 07:40:30;;;;;;;5.65;3.65;;;18.70;99.90;;;;;;5074886;28;20196;-66
2022/06/17 07:42:57;;;;;;;3.88;3.47;;;18.70;99.90;;;;;;5074897;28;20178;-66
2022/06/17 07:45:24;;;;;;;7.18;4.15;;;18.80;99.90;;;;;;5074758;28;20165;-66
2022/06/17 07:47:52;;;;;;;7.72;4.43;;;18.80;99.90;;;;;;5074943;28;20174;-66
2022/06/17 07:50:23;;;;;;;6.75;3.70;;;19.00;99.90;;;;;;5075010;28;20608;-66
2022/06/17 07:52:49;;;;;;;5.95;4.22;;;19.10;99.90;;;;;;5074833;28;20163;-66
2022/06/17 07:55:15;;;;;;;8.18;3.58;;;19.30;99.90;;;;;;5074623;28;20215;-65
2022/06/17 07:57:44;;;;;;;4.22;3.72;;;19.40;99.90;;;;;;5073783;28;20181;-64
2022/06/17 08:00:35;;;;;;;4.65;2.95;;;19.60;99.90;;;;;;5074357;28;20181;-64
2022/06/17 08:03:02;;;;;;;4.25;3.13;;;19.70;99.90;;;;;;5074196;28;20196;-65
2022/06/17 08:05:30;;;;;;;6.35;3.60;;;19.90;99.90;;;;;;5074227;28;20231;-65
2022/06/17 08:07:56;;;;;;;3.45;3.00;;;20.00;99.90;;;;;;5073267;28;20178;-66
2022/06/17 08:10:27;;;;;;;3.80;3.00;;;20.20;99.90;;;;;;5073839;28;20193;-66
2022/06/17 08:12:52;;;;;;;4.78;2.90;;;20.30;99.90;;;;;;5072741;28;20660;-66
2022/06/17 08:15:19;;;;;;;5.15;2.67;;;20.50;99.90;;;;;;5074096;28;20185;-66
2022/06/17 08:17:45;;;;;;;4.93;2.70;;;20.70;99.90;;;;;;5074168;28;20577;-66
2022/06/17 08:20:23;;;;;;;5.13;2.60;;;20.80;99.90;;;;;;5072871;28;20178;-66
2022/06/17 08:22:49;;;;;;;4.53;2.60;;;21.00;99.90;;;;;;5073825;28;20153;-66
2022/06/17 08:25:16;;;;;;;2.97;2.67;;;21.10;99.90;;;;;;5072307;28;20192;-66
2022/06/17 08:27:43;;;;;;;2.88;2.45;;;21.30;99.90;;;;;;5073901;28;20261;-66
2022/06/17 08:30:10;;;;;;;3.00;2.70;;;21.40;99.90;;;;;;5073941;28;20197;-66
2022/06/17 08:32:45;;;;;;;3.83;2.45;;;21.50;99.90;;;;;;5073996;28;20249;-66
2022/06/17 08:35:12;;;;;;;4.28;2.40;;;21.60;99.90;;;;;;5073687;28;20154;-66
2022/06/17 08:37:38;;;;;;;3.17;2.45;;;21.70;99.90;;;;;;5073651;28;20181;-66
2022/06/17 08:40:25;;;;;;;5.30;2.72;;;21.80;99.90;;;;;;5073550;28;20170;-66
2022/06/17 08:42:51;;;;;;;4.50;2.40;;;21.90;99.90;;;;;;5073440;28;20176;-66
2022/06/17 08:45:32;;;;;;;4.43;2.80;;;22.00;99.90;;;;;;5073576;28;20541;-66
2022/06/17 08:48:25;;;;;;;3.13;2.42;;;22.10;99.90;;;;;;5074036;28;20185;-66
2022/06/17 08:50:55;;;;;;;3.42;2.40;;;22.30;99.90;;;;;;5073321;28;20765;-66
2022/06/17 08:53:43;;;;;;;3.25;2.20;;;22.40;99.90;;;;;;5073351;28;20189;-66
2022/06/17 08:56:18;;;;;;;3.53;2.20;;;22.40;99.90;;;;;;5072554;28;20185;-66
2022/06/17 08:59:09;;;;;;;2.83;2.40;;;22.60;99.90;;;;;;5072162;28;20157;-66
2022/06/17 09:01:51;;;;;;;3.25;2.25;;;22.70;99.90;;;;;;5073659;28;20572;-66
2022/06/17 09:04:38;;;;;;;5.57;2.50;;;22.80;99.90;;;;;;5073442;28;20552;-66
2022/06/17 09:07:33;;;;;;;3.83;2.88;;;22.90;99.90;;;;;;5073568;28;20279;-66
2022/06/17 09:10:09;;;;;;;3.47;2.45;;;23.10;99.90;;;;;;5073824;28;20200;-66
2022/06/17 09:12:52;;;;;;;3.20;2.33;;;23.20;99.90;;;;;;5073071;28;20168;-66
2022/06/17 09:15:26;;;;;;;3.20;2.50;;;23.30;99.90;;;;;;5073170;28;20188;-66
2022/06/17 09:18:16;;;;;;;4.85;2.50;;;23.50;99.90;;;;;;5073173;28;20173;-66
2022/06/17 09:20:44;;;;;;;3.42;2.28;;;23.80;99.90;;;;;;5073541;28;20519;-66
2022/06/17 09:23:17;;;;;;;3.45;2.30;;;24.00;99.90;;;;;;5073139;28;20232;-66
2022/06/17 09:25:45;;;;;;;3.13;2.60;;;24.20;99.90;;;;;;5073267;28;20166;-67
2022/06/17 09:28:25;;;;;;;3.83;2.55;;;24.30;99.90;;;;;;5073681;28;20630;-67
2022/06/17 09:30:59;;;;;;;4.97;2.45;;;24.50;99.90;;;;;;5073366;28;20236;-67
2022/06/17 09:33:32;;;;;;;3.50;2.30;;;24.70;99.90;;;;;;5071902;28;20278;-67
2022/06/17 09:36:07;;;;;;;3.60;2.33;;;24.90;99.90;;;;;;5073120;28;20170;-67
2022/06/17 09:38:42;;;;;;;4.05;2.33;;;25.10;99.90;;;;;;5071835;28;20166;-67
2022/06/17 09:41:32;;;;;;;4.10;2.47;;;25.40;99.90;;;;;;5073052;28;20158;-67
2022/06/17 09:44:21;;;;;;;3.30;2.40;;;25.40;99.90;;;;;;5073011;28;20277;-67
2022/06/17 09:46:56;;;;;;;3.53;2.47;;;25.40;99.90;;;;;;5073143;28;20170;-67
2022/06/17 09:49:47;;;;;;;3.72;2.33;;;25.50;99.90;;;;;;5072888;28;20616;-67
2022/06/17 09:52:26;;;;;;;2.75;2.13;;;25.70;99.90;;;;;;5072896;28;20155;-67
2022/06/17 09:54:58;;;;;;;3.03;2.20;;;25.80;99.90;;;;;;5072959;28;20197;-67
2022/06/17 09:57:42;;;;;;;2.75;2.45;;;25.70;99.90;;;;;;5072904;28;20178;-66
2022/06/17 10:00:17;;;;;;;3.60;2.22;;;25.70;99.90;;;;;;5072931;28;20162;-67
2022/06/17 10:02:57;;;;;;;4.55;2.38;;;25.70;99.90;;;;;;5073180;28;20164;-67
2022/06/17 10:05:52;;;;;;;2.38;2.00;;;25.70;99.90;;;;;;5073192;28;20150;-67
2022/06/17 10:08:48;;;;;;;2.42;2.00;;;25.70;99.90;;;;;;5072868;28;20181;-67
2022/06/17 10:11:48;;;;;;;3.13;2.30;;;25.80;99.90;;;;;;5071294;28;20190;-67
2022/06/17 10:14:26;;;;;;;3.20;2.10;;;26.00;99.90;;;;;;5072907;28;20201;-67
2022/06/17 10:20:09;;;;;;;2.15;1.95;;;26.30;99.90;;;;;;5073831;28;20326;-66
2022/06/17 10:23:01;;;;;;;4.72;2.40;;;26.40;99.90;;;;;;5075000;28;20545;-67
2022/06/17 10:25:57;;;;;;;3.40;2.08;;;26.20;99.90;;;;;;5076587;28;20173;-66
2022/06/17 10:28:41;;;;;;;3.65;2.80;;;26.20;99.90;;;;;;5096510;28;20212;-67
2022/06/17 10:31:26;;;;;;;3.10;2.20;;;26.20;99.90;;;;;;5096359;28;20192;-67
2022/06/17 10:33:54;;;;;;;2.13;1.90;;;26.30;99.90;;;;;;5096495;28;20254;-67
2022/06/17 10:36:20;;;;;;;3.55;2.13;;;26.30;99.90;;;;;;5096586;28;20278;-67
2022/06/17 10:38:47;;;;;;;3.15;2.33;;;26.30;99.90;;;;;;5097104;28;20538;-66
2022/06/17 10:41:14;;;;;;;3.42;2.30;;;26.20;99.90;;;;;;5096900;28;20614;-67
2022/06/17 10:43:44;;;;;;;2.17;1.80;;;26.10;99.90;;;;;;5096591;28;20201;-67
2022/06/17 10:46:28;;;;;;;3.45;2.00;;;26.00;99.90;;;;;;5096540;28;20170;-67
2022/06/17 10:49:05;;;;;;;2.47;2.00;;;26.00;99.90;;;;;;5096363;28;20251;-67
2022/06/17 10:51:34;;;;;;;3.08;2.05;;;26.10;99.90;;;;;;5096110;28;20157;-67
2022/06/17 10:54:09;;;;;;;2.28;1.75;;;26.30;99.90;;;;;;5095866;28;20588;-67
2022/06/17 10:56:40;;;;;;;1.73;1.52;;;26.40;99.90;;;;;;5095839;28;20641;-67
2022/06/17 10:59:10;;;;;;;2.83;2.20;;;26.60;99.90;;;;;;5094645;28;20169;-67
2022/06/17 11:01:51;;;;;;;6.35;2.00;;;26.70;99.90;;;;;;5096468;28;20158;-66
2022/06/17 11:04:18;;;;;;;5.53;2.22;;;26.60;99.90;;;;;;5095775;28;20199;-67
2022/06/17 11:07:13;;;;;;;1.98;1.88;;;26.80;99.90;;;;;;5095954;28;20527;-67
2022/06/17 11:09:45;;;;;;;1.88;1.77;;;27.00;99.90;;;;;;5092431;28;20223;-67
2022/06/17 11:12:28;;;;;;;3.63;1.70;;;27.30;99.90;;;;;;5095379;28;20162;-67
2022/06/17 11:15:03;;;;;;;2.90;1.80;;;27.30;99.90;;;;;;5095433;28;20779;-67
2022/06/17 11:17:44;;;;;;;1.67;1.58;;;27.30;99.90;;;;;;5095899;28;20161;-67
2022/06/17 11:20:16;;;;;;;3.33;1.80;;;27.60;99.90;;;;;;5095447;28;20173;-67
2022/06/17 11:22:52;;;;;;;1.70;1.60;;;28.00;99.90;;;;;;5095363;28;20173;-67
2022/06/17 11:25:37;;;;;;;2.92;1.80;;;28.10;99.90;;;;;;5095672;28;20157;-67
2022/06/17 11:28:19;;;;;;;1.70;1.60;;;28.10;99.90;;;;;;5094957;28;20185;-67
2022/06/17 11:30:54;;;;;;;1.50;1.40;;;27.90;99.90;;;;;;5095320;28;20188;-67
2022/06/17 11:33:30;;;;;;;1.48;1.38;;;27.90;99.90;;;;;;5094614;28;20193;-67
2022/06/17 11:36:09;;;;;;;2.83;1.70;;;27.90;99.90;;;;;;5094139;28;20180;-67
2022/06/17 11:38:35;;;;;;;1.95;1.60;;;27.90;99.90;;;;;;5093903;28;20165;-67
2022/06/17 11:41:03;;;;;;;2.88;2.00;;;27.80;99.90;;;;;;5094828;28;20256;-67
2022/06/17 11:43:35;;;;;;;2.95;1.60;;;27.70;99.90;;;;;;5095353;28;20736;-67
2022/06/17 11:46:12;;;;;;;2.00;1.80;;;27.60;99.90;;;;;;5093655;28;20165;-67
2022/06/17 11:49:11;;;;;;;5.07;1.85;;;27.60;99.90;;;;;;5094783;28;20247;-67
2022/06/17 11:51:47;;;;;;;1.83;1.45;;;27.60;99.90;;;;;;5089878;28;20229;-67
2022/06/17 11:54:23;;;;;;;4.63;1.48;;;27.70;99.90;;;;;;5095105;28;20196;-67
2022/06/17 11:56:51;;;;;;;1.50;1.40;;;27.80;99.90;;;;;;5094660;28;20165;-67
2022/06/17 11:59:23;;;;;;;3.15;1.42;;;28.20;99.90;;;;;;5094567;28;20214;-67
2022/06/17 12:02:01;;;;;;;1.60;1.50;;;28.30;99.90;;;;;;5094558;28;20154;-67
2022/06/17 12:04:48;;;;;;;1.85;1.40;;;28.40;99.90;;;;;;5093153;28;20197;-67
2022/06/17 12:07:33;;;;;;;1.65;1.55;;;28.60;99.90;;;;;;5094438;28;20164;-67
2022/06/17 12:10:33;;;;;;;2.70;1.70;;;28.50;99.90;;;;;;5094596;28;20271;-67
2022/06/17 12:13:05;;;;;;;1.63;1.45;;;28.30;99.90;;;;;;5094063;28;20683;-66
2022/06/17 12:15:37;;;;;;;2.97;1.50;;;28.40;99.90;;;;;;5094242;28;20196;-67
2022/06/17 12:18:05;;;;;;;2.10;1.50;;;28.50;99.90;;;;;;5094767;28;20207;-67
2022/06/17 12:20:52;;;;;;;2.38;1.63;;;28.70;99.90;;;;;;5094200;28;20200;-67
2022/06/17 12:23:34;;;;;;;1.98;1.45;;;28.80;99.90;;;;;;5094114;28;20238;-67
2022/06/17 12:26:05;;;;;;;2.25;1.20;;;28.80;99.90;;;;;;5093793;28;20180;-67
2022/06/17 12:28:44;;;;;;;2.28;1.40;;;29.00;99.90;;;;;;5094436;28;20176;-67
2022/06/17 12:31:16;;;;;;;2.63;1.42;;;29.00;99.90;;;;;;5094123;28;20197;-67
2022/06/17 12:34:01;;;;;;;1.77;1.67;;;29.30;99.90;;;;;;5093101;28;20690;-67
2022/06/17 12:36:38;;;;;;;1.40;1.30;;;29.40;99.90;;;;;;5094311;28;20668;-67
2022/06/17 12:39:29;;;;;;;1.05;1.05;;;29.40;99.90;;;;;;5094518;28;20227;-67
2022/06/17 12:42:23;;;;;;;1.10;1.10;;;29.30;99.90;;;;;;5092703;28;20678;-67
2022/06/17 12:44:54;;;;;;;4.10;1.55;;;29.50;99.90;;;;;;5092489;28;20200;-67
2022/06/17 12:47:51;;;;;;;2.55;1.50;;;29.70;99.90;;;;;;5093920;28;20248;-67
2022/06/17 12:53:36;;;;;;;2.38;1.30;;;30.00;99.90;;;;;;5093960;28;20196;-67
2022/06/17 12:56:47;;;;;;;2.00;1.40;;;30.10;99.90;;;;;;5093440;28;20182;-66
2022/06/17 12:59:25;;;;;;;2.35;1.40;;;29.90;99.90;;;;;;5088356;28;20188;-67
2022/06/17 13:02:04;;;;;;;2.28;1.60;;;29.80;99.90;;;;;;5094015;28;20164;-67
2022/06/17 13:04:35;;;;;;;1.40;1.30;;;29.90;99.90;;;;;;5093820;28;20671;-67
2022/06/17 13:07:28;;;;;;;2.47;1.40;;;30.30;99.90;;;;;;5092387;28;20701;-67
2022/06/17 13:13:44;;;;;;;1.15;1.08;;;30.20;99.90;;;;;;5093405;28;20219;-67
2022/06/17 13:16:13;;;;;;;1.52;1.38;;;30.30;99.90;;;;;;5093553;28;20185;-68
2022/06/17 13:18:49;;;;;;;3.45;1.13;;;30.40;99.90;;;;;;5094698;28;20173;-67
2022/06/17 13:21:29;;;;;;;1.48;1.10;;;30.90;99.90;;;;;;5092254;28;20176;-67
2022/06/17 13:24:04;;;;;;;1.30;1.20;;;31.00;99.70;;;;;;5093490;28;20188;-67
2022/06/17 13:26:39;;;;;;;1.77;1.30;;;31.00;99.70;;;;;;5093173;28;20192;-67
2022/06/17 13:29:15;;;;;;;1.30;1.25;;;31.20;99.90;;;;;;5093426;28;20277;-67
2022/06/17 13:31:56;;;;;;;2.60;1.95;;;31.50;99.60;;;;;;5093333;28;20196;-67
2022/06/17 13:34:35;;;;;;;2.05;1.88;;;31.70;99.90;;;;;;5094015;28;20276;-67
2022/06/17 13:37:45;;;;;;;1.60;1.20;;;31.60;97.80;;;;;;5092160;28;20213;-67